Time;durP1;ratioP1;P1;durP2;ratioP2;P2;SDS_P1;SDS_P2;PMS_P1;PMS_P2;Temp;Humidity;BMP_temperature;BMP_pressure;BME280_temperature;BME280_humidity;BME280_pressure;Samples;Min_cycle;Max_cycle;Signal;HPM_P1;HPM_P2
2020/12/21 00:00:13;;;;;;;18.10;5.70;;;6.80;92.10;;;;;;4973894;28;20559;-49
2020/12/21 00:02:39;;;;;;;15.13;5.68;;;6.80;92.20;;;;;;4974760;28;20142;-50
2020/12/21 00:05:07;;;;;;;15.13;5.50;;;6.80;92.30;;;;;;5002333;28;20063;-48
2020/12/21 00:07:36;;;;;;;17.80;6.13;;;6.80;92.10;;;;;;4982394;28;20101;-49
2020/12/21 00:10:04;;;;;;;18.70;5.88;;;6.70;92.20;;;;;;4977826;28;20070;-53
2020/12/21 00:12:29;;;;;;;13.48;5.65;;;6.80;92.20;;;;;;4977064;28;20039;-50
2020/12/21 00:14:55;;;;;;;18.15;5.65;;;6.80;92.10;;;;;;4987512;28;20495;-50
2020/12/21 00:17:21;;;;;;;19.50;5.80;;;6.80;92.20;;;;;;4992301;28;20467;-51
2020/12/21 00:19:47;;;;;;;16.42;5.20;;;6.70;92.30;;;;;;4988904;28;20070;-50
2020/12/21 00:22:12;;;;;;;13.18;5.68;;;6.70;92.20;;;;;;4976712;28;20065;-51
2020/12/21 00:24:38;;;;;;;25.25;6.38;;;6.70;92.30;;;;;;4994018;28;20380;-48
2020/12/21 00:27:04;;;;;;;16.13;5.15;;;6.60;92.20;;;;;;4992961;28;20526;-48
2020/12/21 00:29:29;;;;;;;18.08;5.93;;;6.60;92.30;;;;;;4993223;28;20459;-50
2020/12/21 00:31:56;;;;;;;21.42;6.20;;;6.60;92.30;;;;;;4992675;28;20097;-51
2020/12/21 00:34:23;;;;;;;14.88;5.90;;;6.60;92.40;;;;;;4978892;28;20045;-49
2020/12/21 00:36:53;;;;;;;16.10;5.80;;;6.60;92.20;;;;;;4980715;28;20110;-48
2020/12/21 00:39:20;;;;;;;18.70;5.63;;;6.60;92.40;;;;;;4973470;28;20054;-47
2020/12/21 00:41:46;;;;;;;15.65;5.32;;;6.60;92.20;;;;;;4984408;28;20034;-50
2020/12/21 00:44:13;;;;;;;15.77;5.65;;;6.50;92.30;;;;;;4991881;28;20065;-49
2020/12/21 00:46:40;;;;;;;15.68;5.70;;;6.50;92.30;;;;;;4989291;28;20073;-50
2020/12/21 00:49:07;;;;;;;18.35;6.05;;;6.50;92.40;;;;;;5005839;28;20495;-48
2020/12/21 00:51:33;;;;;;;20.80;6.07;;;6.50;92.40;;;;;;4991047;28;20488;-48
2020/12/21 00:53:59;;;;;;;15.57;5.85;;;6.50;92.40;;;;;;4988724;28;20054;-48
2020/12/21 00:56:25;;;;;;;17.70;5.85;;;6.50;92.30;;;;;;4982907;28;20035;-48
2020/12/21 00:58:51;;;;;;;19.17;6.07;;;6.50;92.30;;;;;;4973224;28;20039;-49
2020/12/21 01:01:20;;;;;;;15.32;6.05;;;6.50;92.40;;;;;;4982902;28;20039;-50
2020/12/21 01:03:46;;;;;;;14.73;6.00;;;6.50;92.30;;;;;;4979223;28;20092;-50
2020/12/21 01:06:14;;;;;;;17.88;5.28;;;6.50;92.40;;;;;;4986624;28;20050;-50
2020/12/21 01:08:43;;;;;;;20.17;6.18;;;6.40;92.30;;;;;;4999403;28;20149;-51
2020/12/21 01:11:15;;;;;;;15.27;5.65;;;6.40;92.30;;;;;;4980064;28;20050;-52
2020/12/21 01:13:42;;;;;;;12.80;5.20;;;6.40;92.30;;;;;;4990436;28;20042;-52
2020/12/21 01:16:08;;;;;;;16.02;5.43;;;6.30;92.30;;;;;;4976224;28;20073;-49
2020/12/21 01:18:34;;;;;;;17.48;6.38;;;6.30;92.40;;;;;;4979450;28;20074;-49
2020/12/21 01:21:01;;;;;;;13.05;5.80;;;6.30;92.40;;;;;;4972785;28;20050;-51
2020/12/21 01:23:28;;;;;;;14.82;5.63;;;6.30;92.40;;;;;;4986562;28;20046;-48
2020/12/21 01:25:54;;;;;;;15.70;5.82;;;6.30;92.30;;;;;;4990356;28;20043;-50
2020/12/21 01:28:21;;;;;;;17.65;5.95;;;6.30;92.40;;;;;;4987297;28;20415;-48
2020/12/21 01:30:49;;;;;;;14.93;5.90;;;6.20;92.40;;;;;;4991418;28;20038;-48
2020/12/21 01:33:16;;;;;;;13.48;6.03;;;6.30;92.50;;;;;;4990951;28;20043;-51
2020/12/21 01:35:44;;;;;;;15.65;6.28;;;6.20;92.40;;;;;;4991455;28;20046;-51
2020/12/21 01:38:11;;;;;;;18.85;6.47;;;6.30;92.50;;;;;;4982692;28;20483;-52
2020/12/21 01:40:37;;;;;;;14.85;5.82;;;6.20;92.30;;;;;;4974603;28;20047;-50
2020/12/21 01:43:02;;;;;;;19.15;7.05;;;6.20;92.50;;;;;;4975765;28;20514;-51
2020/12/21 01:45:28;;;;;;;21.08;6.63;;;6.30;92.40;;;;;;4973835;28;20054;-50
2020/12/21 01:47:54;;;;;;;19.17;6.50;;;6.20;92.50;;;;;;4971353;28;20051;-51
2020/12/21 01:50:21;;;;;;;19.77;6.90;;;6.30;92.40;;;;;;4974518;28;20050;-48
2020/12/21 01:52:48;;;;;;;17.60;6.55;;;6.30;92.40;;;;;;4970184;28;20098;-49
2020/12/21 01:55:15;;;;;;;15.27;6.07;;;6.20;92.40;;;;;;4978802;28;20034;-49
2020/12/21 01:57:42;;;;;;;18.00;6.68;;;6.20;92.50;;;;;;4984423;28;20046;-50
2020/12/21 02:00:09;;;;;;;17.73;6.63;;;6.20;92.40;;;;;;4981223;28;20380;-50
2020/12/21 02:02:36;;;;;;;20.60;7.10;;;6.20;92.40;;;;;;4972412;28;20623;-50
2020/12/21 02:05:03;;;;;;;19.33;6.30;;;6.20;92.60;;;;;;4984058;28;20050;-52
2020/12/21 02:07:29;;;;;;;21.52;6.63;;;6.30;92.50;;;;;;4984597;28;20035;-50
2020/12/21 02:09:56;;;;;;;16.05;7.00;;;6.20;92.40;;;;;;4971228;28;20042;-49
2020/12/21 02:12:22;;;;;;;16.02;6.22;;;6.20;92.50;;;;;;4971753;28;20049;-51
2020/12/21 02:14:48;;;;;;;19.67;6.70;;;6.20;92.50;;;;;;4981486;28;20046;-49
2020/12/21 02:17:13;;;;;;;20.48;6.93;;;6.20;92.50;;;;;;4978209;28;20092;-50
2020/12/21 02:19:40;;;;;;;17.25;6.88;;;6.10;92.50;;;;;;4991617;28;20041;-53
2020/12/21 02:22:06;;;;;;;22.20;6.97;;;6.10;92.60;;;;;;4990029;28;20047;-51
2020/12/21 02:24:32;;;;;;;18.58;6.18;;;6.10;92.60;;;;;;4973395;28;20038;-49
2020/12/21 02:26:57;;;;;;;18.73;6.68;;;6.10;92.60;;;;;;4972107;28;20102;-50
2020/12/21 02:29:23;;;;;;;15.02;6.80;;;6.10;92.60;;;;;;4972922;28;20130;-49
2020/12/21 02:31:48;;;;;;;19.88;6.85;;;6.00;92.70;;;;;;4976302;28;20062;-48
2020/12/21 02:34:20;;;;;;;21.70;6.95;;;6.00;92.60;;;;;;4978145;28;20049;-52
2020/12/21 02:36:47;;;;;;;24.23;6.60;;;6.00;92.60;;;;;;4986602;28;20043;-50
2020/12/21 02:39:13;;;;;;;20.13;6.82;;;6.00;92.70;;;;;;4989442;28;20053;-48
2020/12/21 02:41:40;;;;;;;18.67;6.43;;;6.00;92.70;;;;;;4975731;28;20556;-48
2020/12/21 02:44:07;;;;;;;21.73;6.45;;;6.00;92.70;;;;;;5003597;28;20060;-49
2020/12/21 02:46:34;;;;;;;16.58;6.53;;;6.00;92.70;;;;;;4981788;28;20046;-48
2020/12/21 02:48:59;;;;;;;18.73;7.32;;;6.00;92.70;;;;;;4982962;28;20066;-50
2020/12/21 02:51:26;;;;;;;18.55;6.88;;;6.00;92.60;;;;;;4988943;28;20039;-48
2020/12/21 02:53:52;;;;;;;18.40;6.38;;;5.90;92.60;;;;;;4984962;28;20052;-48
2020/12/21 02:56:17;;;;;;;22.30;6.95;;;5.80;92.60;;;;;;4993162;28;20125;-48
2020/12/21 02:58:43;;;;;;;20.92;7.40;;;5.90;92.80;;;;;;4986811;28;20548;-49
2020/12/21 03:01:09;;;;;;;20.33;7.63;;;5.80;92.60;;;;;;4989412;28;20045;-50
2020/12/21 03:03:35;;;;;;;23.50;7.20;;;5.80;92.70;;;;;;4989557;28;20038;-49
2020/12/21 03:06:01;;;;;;;21.73;7.15;;;5.80;92.80;;;;;;4985501;28;20038;-48
2020/12/21 03:08:26;;;;;;;22.77;7.40;;;5.70;92.80;;;;;;4977550;28;20039;-50
2020/12/21 03:10:52;;;;;;;18.83;7.78;;;5.70;92.90;;;;;;4984435;28;20096;-52
2020/12/21 03:13:19;;;;;;;20.58;7.20;;;5.70;92.80;;;;;;4980227;28;20058;-49
2020/12/21 03:15:45;;;;;;;22.25;7.63;;;5.70;92.70;;;;;;4987177;28;20043;-52
2020/12/21 03:18:12;;;;;;;20.17;8.13;;;5.70;92.80;;;;;;4987000;28;20096;-53
2020/12/21 03:20:39;;;;;;;19.40;8.23;;;5.60;92.90;;;;;;4980437;28;20038;-50
2020/12/21 03:23:05;;;;;;;18.67;7.95;;;5.60;92.80;;;;;;4973545;28;20138;-49
2020/12/21 03:25:31;;;;;;;25.13;8.15;;;5.50;92.90;;;;;;4988053;28;20146;-49
2020/12/21 03:27:58;;;;;;;19.65;7.93;;;5.50;93.00;;;;;;4984895;28;20108;-50
2020/12/21 03:30:25;;;;;;;24.90;8.13;;;5.60;92.90;;;;;;4992185;28;20054;-50
2020/12/21 03:32:51;;;;;;;21.20;7.70;;;5.60;92.90;;;;;;4982161;28;20038;-48
2020/12/21 03:35:16;;;;;;;29.60;7.88;;;5.60;92.90;;;;;;4980074;28;20126;-50
2020/12/21 03:37:42;;;;;;;24.25;7.85;;;5.60;92.90;;;;;;4988318;28;20122;-49
2020/12/21 03:40:08;;;;;;;19.80;7.50;;;5.50;93.00;;;;;;4982266;28;20049;-48
2020/12/21 03:42:34;;;;;;;23.88;7.60;;;5.50;93.00;;;;;;4977527;28;20479;-51
2020/12/21 03:45:00;;;;;;;20.75;8.13;;;5.50;93.00;;;;;;4989971;28;20046;-49
2020/12/21 03:47:27;;;;;;;22.55;7.40;;;5.50;93.10;;;;;;4988316;28;20419;-50
2020/12/21 03:49:53;;;;;;;22.75;7.55;;;5.60;93.10;;;;;;4993714;28;20121;-48
2020/12/21 03:52:19;;;;;;;24.77;8.65;;;5.50;93.10;;;;;;4993091;28;20096;-48
2020/12/21 03:54:45;;;;;;;20.40;8.13;;;5.60;93.20;;;;;;4987409;28;20051;-50
2020/12/21 03:57:10;;;;;;;21.65;8.63;;;5.60;93.10;;;;;;4974395;28;20046;-48
2020/12/21 03:59:37;;;;;;;22.75;8.00;;;5.60;93.10;;;;;;4978879;28;20125;-48
2020/12/21 04:02:04;;;;;;;25.40;7.72;;;5.60;93.10;;;;;;4992862;28;20177;-48
2020/12/21 04:04:31;;;;;;;30.30;8.60;;;5.70;93.20;;;;;;4981244;28;20050;-49
2020/12/21 04:06:58;;;;;;;19.55;7.82;;;5.70;93.20;;;;;;4976043;28;20046;-49
2020/12/21 04:09:24;;;;;;;23.65;7.78;;;5.70;93.20;;;;;;4976953;28;20042;-49
2020/12/21 04:11:49;;;;;;;21.30;8.00;;;5.70;93.20;;;;;;4993829;28;20046;-49
2020/12/21 04:14:15;;;;;;;19.90;7.25;;;5.70;93.20;;;;;;4992539;28;20047;-50
2020/12/21 04:16:41;;;;;;;20.73;7.47;;;5.70;93.20;;;;;;4975042;28;20046;-51
2020/12/21 04:19:08;;;;;;;24.23;8.65;;;5.70;93.20;;;;;;4980975;28;20069;-50
2020/12/21 04:21:35;;;;;;;25.50;8.07;;;5.70;93.10;;;;;;4980741;28;20531;-50
2020/12/21 04:24:01;;;;;;;26.83;7.97;;;5.80;93.10;;;;;;5005967;28;20042;-53
2020/12/21 04:26:27;;;;;;;24.13;8.50;;;5.80;93.20;;;;;;4982399;28;20167;-50
2020/12/21 04:28:53;;;;;;;17.73;7.65;;;5.80;93.20;;;;;;4985999;28;20081;-49
2020/12/21 04:31:19;;;;;;;22.45;8.00;;;5.80;93.10;;;;;;4975570;28;20055;-52
2020/12/21 04:33:49;;;;;;;18.73;7.43;;;5.90;93.10;;;;;;4984888;28;20543;-52
2020/12/21 04:36:14;;;;;;;23.35;8.05;;;5.90;93.10;;;;;;4984084;28;20050;-49
2020/12/21 04:38:42;;;;;;;25.73;8.10;;;5.90;93.10;;;;;;4986478;28;20042;-49
2020/12/21 04:41:09;;;;;;;22.55;8.05;;;5.90;93.20;;;;;;4974583;28;20043;-51
2020/12/21 04:43:37;;;;;;;25.08;8.15;;;5.90;93.30;;;;;;4986499;28;20042;-50
2020/12/21 04:46:05;;;;;;;26.88;7.50;;;6.00;93.30;;;;;;4978573;28;20118;-49
2020/12/21 04:48:33;;;;;;;21.88;8.13;;;6.00;93.30;;;;;;4976960;28;20039;-51
2020/12/21 04:50:58;;;;;;;23.63;8.02;;;6.00;93.30;;;;;;4979052;28;20037;-49
2020/12/21 04:53:25;;;;;;;24.40;8.38;;;6.10;93.20;;;;;;4992465;28;20046;-52
2020/12/21 04:55:51;;;;;;;31.45;8.40;;;6.00;93.20;;;;;;4995417;28;20042;-50
2020/12/21 04:58:18;;;;;;;24.90;8.13;;;6.10;93.20;;;;;;4983001;28;20133;-48
2020/12/21 05:00:44;;;;;;;25.00;8.07;;;6.00;93.20;;;;;;4983178;28;20050;-50
2020/12/21 05:03:14;;;;;;;23.88;7.82;;;6.10;93.30;;;;;;4996249;28;20042;-52
2020/12/21 05:05:42;;;;;;;23.27;7.75;;;6.10;93.30;;;;;;4998120;28;20042;-50
2020/12/21 05:08:15;;;;;;;20.73;8.00;;;6.10;93.20;;;;;;4996564;28;20073;-53
2020/12/21 05:10:55;;;;;;;20.85;8.25;;;6.10;93.20;;;;;;4993013;28;20047;-50
2020/12/21 05:13:22;;;;;;;21.13;7.20;;;6.10;93.20;;;;;;5006498;28;20050;-50
2020/12/21 05:15:51;;;;;;;22.33;8.18;;;6.20;93.20;;;;;;4981431;28;20035;-49
2020/12/21 05:18:17;;;;;;;26.52;8.10;;;6.10;93.20;;;;;;4979026;28;20069;-53
2020/12/21 05:20:44;;;;;;;22.65;7.78;;;6.10;93.30;;;;;;5002393;28;20046;-50
2020/12/21 05:23:19;;;;;;;18.92;7.40;;;6.10;93.30;;;;;;4996638;28;20057;-52
2020/12/21 05:25:57;;;;;;;24.17;7.68;;;6.10;93.30;;;;;;5006495;28;20069;-49
2020/12/21 05:28:44;;;;;;;20.48;6.82;;;6.20;93.40;;;;;;4979392;28;20133;-50
2020/12/21 05:31:11;;;;;;;21.92;7.60;;;6.20;93.20;;;;;;4975267;28;20066;-51
2020/12/21 05:33:57;;;;;;;19.25;7.90;;;6.10;93.20;;;;;;5002319;28;20046;-52
2020/12/21 05:36:43;;;;;;;19.88;7.25;;;6.10;93.30;;;;;;4987032;28;20066;-52
2020/12/21 05:39:09;;;;;;;21.45;7.57;;;6.00;93.30;;;;;;4994678;28;20050;-52
2020/12/21 05:41:35;;;;;;;22.95;7.20;;;6.10;93.20;;;;;;4992507;28;20091;-52
2020/12/21 05:44:05;;;;;;;18.92;7.03;;;6.00;93.20;;;;;;4980268;28;20046;-50
2020/12/21 05:46:33;;;;;;;20.80;7.38;;;6.00;93.30;;;;;;4989956;28;20042;-49
2020/12/21 05:49:01;;;;;;;24.17;8.30;;;6.00;93.20;;;;;;4978059;28;20058;-49
2020/12/21 05:51:37;;;;;;;19.58;7.07;;;6.00;93.30;;;;;;4980352;28;20046;-50
2020/12/21 05:54:05;;;;;;;22.88;7.75;;;5.90;93.30;;;;;;4983449;28;20455;-48
2020/12/21 05:56:33;;;;;;;20.27;7.15;;;6.00;93.30;;;;;;4987038;28;20042;-49
2020/12/21 05:58:59;;;;;;;22.63;8.10;;;6.00;93.30;;;;;;4986396;28;20078;-49
2020/12/21 06:01:27;;;;;;;23.38;7.50;;;6.00;93.30;;;;;;4988497;28;20039;-52
2020/12/21 06:04:01;;;;;;;17.60;7.85;;;5.90;93.40;;;;;;4988077;28;20058;-49
2020/12/21 06:06:28;;;;;;;17.10;7.90;;;6.00;93.50;;;;;;4993550;28;20094;-49
2020/12/21 06:08:59;;;;;;;24.90;7.97;;;6.00;93.40;;;;;;4989288;28;20093;-49
2020/12/21 06:11:34;;;;;;;22.00;7.90;;;5.90;93.40;;;;;;5000830;28;20527;-48
2020/12/21 06:14:04;;;;;;;18.23;7.30;;;6.00;93.50;;;;;;5009342;28;20062;-49
2020/12/21 06:16:32;;;;;;;23.85;8.02;;;6.00;93.50;;;;;;4984908;28;20055;-49
2020/12/21 06:19:06;;;;;;;21.25;7.30;;;6.00;93.40;;;;;;4985883;28;20048;-50
2020/12/21 06:21:34;;;;;;;23.63;7.80;;;6.00;93.40;;;;;;5002690;28;20405;-49
2020/12/21 06:24:13;;;;;;;22.63;7.60;;;6.10;93.40;;;;;;4998372;28;20471;-50
2020/12/21 06:26:39;;;;;;;22.50;7.18;;;6.10;93.30;;;;;;4995272;28;20042;-49
2020/12/21 06:29:12;;;;;;;17.80;7.30;;;6.10;93.30;;;;;;4991507;28;20049;-49
2020/12/21 06:31:49;;;;;;;21.35;7.80;;;6.10;93.20;;;;;;4976592;28;20050;-49
2020/12/21 06:34:19;;;;;;;18.42;7.40;;;6.10;93.20;;;;;;4976173;28;20425;-50
2020/12/21 06:36:46;;;;;;;22.38;7.50;;;6.00;93.10;;;;;;4987724;28;20051;-49
2020/12/21 06:39:25;;;;;;;20.58;7.05;;;6.00;93.20;;;;;;4978250;28;20439;-49
2020/12/21 06:42:13;;;;;;;20.15;7.00;;;5.90;93.20;;;;;;4976937;28;20035;-48
2020/12/21 06:44:42;;;;;;;23.15;8.30;;;5.90;93.30;;;;;;4989479;28;20070;-50
2020/12/21 06:47:12;;;;;;;23.45;8.02;;;5.90;93.30;;;;;;4987940;28;20414;-51
2020/12/21 06:49:41;;;;;;;19.63;7.30;;;5.90;93.40;;;;;;4988527;28;20620;-50
2020/12/21 06:52:08;;;;;;;22.30;7.40;;;5.90;93.20;;;;;;4986567;28;20046;-49
2020/12/21 06:54:36;;;;;;;23.02;7.80;;;5.90;93.40;;;;;;4975083;28;20475;-49
2020/12/21 06:57:02;;;;;;;19.00;6.85;;;5.80;93.40;;;;;;4986324;28;20093;-48
2020/12/21 06:59:27;;;;;;;21.60;7.35;;;5.80;93.40;;;;;;4979943;28;20043;-49
2020/12/21 07:01:54;;;;;;;20.42;7.10;;;5.80;93.40;;;;;;4976654;28;20045;-49
2020/12/21 07:04:28;;;;;;;20.98;7.63;;;5.80;93.50;;;;;;4989800;28;20062;-48
2020/12/21 07:06:55;;;;;;;19.33;6.80;;;5.80;93.40;;;;;;4995850;28;20053;-50
2020/12/21 07:09:23;;;;;;;17.75;7.07;;;5.80;93.40;;;;;;4988775;28;20042;-50
2020/12/21 07:11:53;;;;;;;19.75;7.03;;;5.80;93.30;;;;;;4993438;28;20110;-52
2020/12/21 07:14:21;;;;;;;17.75;6.47;;;5.70;93.40;;;;;;4990117;28;20057;-49
2020/12/21 07:16:47;;;;;;;18.65;7.07;;;5.70;93.40;;;;;;4983492;28;20583;-50
2020/12/21 07:19:13;;;;;;;21.88;7.40;;;5.80;93.40;;;;;;4991173;28;20071;-48
2020/12/21 07:21:40;;;;;;;18.20;5.97;;;5.70;93.50;;;;;;4985100;28;20046;-50
2020/12/21 07:24:13;;;;;;;18.65;5.90;;;5.80;93.40;;;;;;4999047;28;20088;-51
2020/12/21 07:26:39;;;;;;;18.27;6.60;;;5.80;93.40;;;;;;4989245;28;20057;-52
2020/12/21 07:29:05;;;;;;;18.42;6.93;;;5.80;93.50;;;;;;4979175;28;20045;-51
2020/12/21 07:31:32;;;;;;;21.08;6.28;;;5.70;93.50;;;;;;4979920;28;20467;-53
2020/12/21 07:34:00;;;;;;;22.13;6.45;;;5.80;93.50;;;;;;4975016;28;20050;-53
2020/12/21 07:36:34;;;;;;;17.45;6.00;;;5.80;93.40;;;;;;4983590;28;20518;-50
2020/12/21 07:39:11;;;;;;;18.58;6.00;;;5.80;93.40;;;;;;4992921;28;20117;-53
2020/12/21 07:41:44;;;;;;;18.80;6.07;;;5.80;93.40;;;;;;4983977;28;20030;-52
2020/12/21 07:44:13;;;;;;;21.02;6.70;;;5.80;93.50;;;;;;4990863;28;20058;-54
2020/12/21 07:47:02;;;;;;;19.02;6.43;;;5.80;93.50;;;;;;4975777;28;20186;-53
2020/12/21 07:49:33;;;;;;;16.40;6.38;;;5.80;93.50;;;;;;4976660;28;20696;-54
2020/12/21 07:52:02;;;;;;;18.40;6.47;;;5.80;93.40;;;;;;4983511;28;20070;-53
2020/12/21 07:54:32;;;;;;;26.38;7.10;;;5.90;93.40;;;;;;4991241;28;20272;-52
2020/12/21 07:57:02;;;;;;;18.30;6.20;;;5.90;93.40;;;;;;4994906;28;20050;-52
2020/12/21 07:59:29;;;;;;;19.50;6.25;;;5.80;93.50;;;;;;4970586;28;20045;-53
2020/12/21 08:02:00;;;;;;;17.52;6.57;;;5.90;93.40;;;;;;4983895;28;20423;-52
2020/12/21 08:04:27;;;;;;;20.05;6.18;;;5.90;93.40;;;;;;4978170;28;20117;-53
2020/12/21 08:06:53;;;;;;;14.10;6.13;;;5.90;93.40;;;;;;4987325;28;20050;-51
2020/12/21 08:09:20;;;;;;;16.63;6.80;;;5.90;93.40;;;;;;4996158;28;20552;-52
2020/12/21 08:11:47;;;;;;;18.70;6.63;;;5.90;93.50;;;;;;4988964;28;20439;-52
2020/12/21 08:14:16;;;;;;;16.55;6.05;;;6.00;93.50;;;;;;4982291;28;20051;-51
2020/12/21 08:16:42;;;;;;;15.65;6.13;;;6.00;93.40;;;;;;4977420;28;20045;-51
2020/12/21 08:19:13;;;;;;;16.75;6.75;;;6.00;93.30;;;;;;4984419;28;20038;-50
2020/12/21 08:21:42;;;;;;;17.92;5.80;;;6.00;93.40;;;;;;4984683;28;20122;-51
2020/12/21 08:24:10;;;;;;;16.65;6.35;;;6.10;93.40;;;;;;4985670;28;20125;-51
2020/12/21 08:26:36;;;;;;;19.08;6.97;;;6.10;93.40;;;;;;4977068;28;20045;-50
2020/12/21 08:29:03;;;;;;;16.33;5.85;;;6.10;93.40;;;;;;4979227;28;20066;-52
2020/12/21 08:31:29;;;;;;;20.15;6.75;;;6.20;93.50;;;;;;4979850;28;20035;-49
2020/12/21 08:34:08;;;;;;;18.33;6.50;;;6.20;93.20;;;;;;4979070;28;20424;-53
2020/12/21 08:36:39;;;;;;;18.42;6.40;;;6.20;93.30;;;;;;4980747;28;20046;-51
2020/12/21 08:39:13;;;;;;;15.57;5.30;;;6.20;93.30;;;;;;4988662;28;20494;-49
2020/12/21 08:41:48;;;;;;;15.98;5.70;;;6.20;93.30;;;;;;4990445;28;20038;-48
2020/12/21 08:44:21;;;;;;;17.77;5.50;;;6.30;93.20;;;;;;4987162;28;20070;-48
2020/12/21 08:46:56;;;;;;;15.73;5.63;;;6.30;93.20;;;;;;4977262;28;20053;-52
2020/12/21 08:49:27;;;;;;;20.13;5.50;;;6.40;93.20;;;;;;4976042;28;20047;-52
2020/12/21 08:52:03;;;;;;;17.23;5.63;;;6.40;93.20;;;;;;4991305;28;20034;-52
2020/12/21 08:54:30;;;;;;;17.10;5.13;;;6.40;93.20;;;;;;5001718;28;20567;-50
2020/12/21 08:56:58;;;;;;;14.13;4.82;;;6.50;93.10;;;;;;4980276;28;20042;-49
2020/12/21 08:59:25;;;;;;;11.40;4.13;;;6.60;93.00;;;;;;4983989;28;20105;-49
2020/12/21 09:01:51;;;;;;;20.83;4.45;;;6.60;92.80;;;;;;4977110;28;20039;-49
2020/12/21 09:04:16;;;;;;;17.63;4.45;;;6.70;92.80;;;;;;4996775;28;20403;-53
2020/12/21 09:06:42;;;;;;;15.18;4.55;;;6.70;92.70;;;;;;4993869;28;20125;-48
2020/12/21 09:09:09;;;;;;;14.35;4.68;;;6.80;92.90;;;;;;4979096;28;20052;-50
2020/12/21 09:11:34;;;;;;;19.63;4.88;;;6.90;92.50;;;;;;4992408;28;20046;-48
2020/12/21 09:14:01;;;;;;;14.25;4.68;;;6.80;92.40;;;;;;4991452;28;20553;-49
2020/12/21 09:16:28;;;;;;;16.48;4.82;;;6.90;92.40;;;;;;4984833;28;20039;-48
2020/12/21 09:18:55;;;;;;;14.10;4.18;;;6.90;92.20;;;;;;4972813;28;20050;-48
2020/12/21 09:21:23;;;;;;;15.07;4.60;;;7.00;92.20;;;;;;4982603;28;20491;-49
2020/12/21 09:23:54;;;;;;;16.63;4.45;;;7.00;92.00;;;;;;4989921;28;20450;-49
2020/12/21 09:26:20;;;;;;;13.57;4.00;;;7.00;92.20;;;;;;4977328;28;20039;-50
2020/12/21 09:28:47;;;;;;;13.57;4.00;;;7.00;92.30;;;;;;4973533;28;20042;-48
2020/12/21 09:31:13;;;;;;;13.77;4.47;;;7.10;92.00;;;;;;4978672;28;20500;-49
2020/12/21 09:33:43;;;;;;;14.73;3.50;;;7.00;92.00;;;;;;4972144;28;20519;-49
2020/12/21 09:36:09;;;;;;;15.43;3.67;;;7.10;91.90;;;;;;4972492;28;20138;-48
2020/12/21 09:38:36;;;;;;;12.25;3.63;;;7.10;91.80;;;;;;4976633;28;20051;-50
2020/12/21 09:41:02;;;;;;;15.85;4.03;;;7.10;91.70;;;;;;4972550;28;20074;-48
2020/12/21 09:43:27;;;;;;;9.60;3.53;;;7.10;91.60;;;;;;4972105;28;20066;-49
2020/12/21 09:45:54;;;;;;;17.20;3.83;;;7.10;91.60;;;;;;4987501;28;20082;-48
2020/12/21 09:48:22;;;;;;;11.48;3.75;;;7.10;91.40;;;;;;4978485;28;20038;-50
2020/12/21 09:50:48;;;;;;;11.73;3.35;;;7.20;91.40;;;;;;4982452;28;20050;-48
2020/12/21 09:53:17;;;;;;;20.63;4.68;;;7.10;91.30;;;;;;4977921;28;20039;-51
2020/12/21 09:55:43;;;;;;;11.32;3.67;;;7.10;91.20;;;;;;4993137;28;20052;-48
2020/12/21 09:58:09;;;;;;;13.63;3.95;;;7.10;91.30;;;;;;4977142;28;20118;-51
2020/12/21 10:00:36;;;;;;;13.55;3.58;;;7.10;91.30;;;;;;4973167;28;20105;-48
2020/12/21 10:03:06;;;;;;;10.18;3.63;;;7.10;91.30;;;;;;4976043;28;20051;-51
2020/12/21 10:05:38;;;;;;;13.48;3.38;;;7.10;91.20;;;;;;4986819;28;20050;-50
2020/12/21 10:08:05;;;;;;;15.48;4.60;;;7.10;91.20;;;;;;4992017;28;20073;-48
2020/12/21 10:10:31;;;;;;;19.10;3.70;;;7.10;91.30;;;;;;4992328;28;20058;-50
2020/12/21 10:12:57;;;;;;;10.32;3.45;;;7.10;91.20;;;;;;4992198;28;20046;-49
2020/12/21 10:15:22;;;;;;;17.25;4.32;;;7.10;91.30;;;;;;4979131;28;20101;-48
2020/12/21 10:17:48;;;;;;;10.73;3.30;;;7.10;91.40;;;;;;4980949;28;20042;-49
2020/12/21 10:20:17;;;;;;;11.63;3.53;;;7.20;91.40;;;;;;4980567;28;20583;-49
2020/12/21 10:22:45;;;;;;;8.82;3.58;;;7.10;91.30;;;;;;4973075;28;20043;-48
2020/12/21 10:25:12;;;;;;;12.32;3.88;;;7.20;91.70;;;;;;4972036;28;20050;-49
2020/12/21 10:27:37;;;;;;;15.35;4.00;;;7.20;91.30;;;;;;4975746;28;20443;-48
2020/12/21 10:30:04;;;;;;;14.50;3.92;;;7.30;91.40;;;;;;4975968;28;20066;-50
2020/12/21 10:32:30;;;;;;;12.60;3.42;;;7.30;91.40;;;;;;4974646;28;20234;-48
2020/12/21 10:34:56;;;;;;;15.00;4.00;;;7.30;91.60;;;;;;4974575;28;20067;-52
2020/12/21 10:37:22;;;;;;;11.52;4.30;;;7.30;91.60;;;;;;4974054;28;20464;-48
2020/12/21 10:39:48;;;;;;;11.10;3.78;;;7.40;91.20;;;;;;4990783;28;20044;-51
2020/12/21 10:42:14;;;;;;;12.70;3.90;;;7.40;91.30;;;;;;4981533;28;20419;-48
2020/12/21 10:44:41;;;;;;;11.10;3.97;;;7.40;91.40;;;;;;4976199;28;20050;-49
2020/12/21 10:47:07;;;;;;;12.75;3.92;;;7.40;91.20;;;;;;4971681;28;20420;-48
2020/12/21 10:49:32;;;;;;;10.52;4.00;;;7.50;91.10;;;;;;4979707;28;20073;-51
2020/12/21 10:52:01;;;;;;;13.48;3.85;;;7.50;91.30;;;;;;4975476;28;20050;-51
2020/12/21 10:54:27;;;;;;;11.23;4.00;;;7.50;91.50;;;;;;4975283;28;20067;-50
2020/12/21 10:56:54;;;;;;;11.32;4.25;;;7.50;91.60;;;;;;4976076;28;20507;-48
2020/12/21 10:59:20;;;;;;;12.15;4.80;;;7.50;91.70;;;;;;4978611;28;20419;-51
2020/12/21 11:01:47;;;;;;;14.77;4.63;;;7.50;91.80;;;;;;4978670;28;20093;-51
2020/12/21 11:04:13;;;;;;;13.65;4.00;;;7.50;91.70;;;;;;4993778;28;20042;-49
2020/12/21 11:06:40;;;;;;;10.55;4.63;;;7.50;91.90;;;;;;4994687;28;20049;-51
2020/12/21 11:09:06;;;;;;;15.00;4.57;;;7.50;91.70;;;;;;4992678;28;20291;-48
2020/12/21 11:11:32;;;;;;;12.35;4.57;;;7.60;91.70;;;;;;4975167;28;20488;-48
2020/12/21 11:13:59;;;;;;;11.38;4.07;;;7.60;91.40;;;;;;4968621;28;20047;-48
2020/12/21 11:16:25;;;;;;;14.68;4.72;;;7.70;91.50;;;;;;4982703;28;20518;-51
2020/12/21 11:18:51;;;;;;;13.40;4.55;;;7.70;91.40;;;;;;4991305;28;20081;-52
2020/12/21 11:21:17;;;;;;;18.60;4.53;;;7.70;91.40;;;;;;4989487;28;20095;-50
2020/12/21 11:23:42;;;;;;;12.82;4.47;;;7.80;91.50;;;;;;4974498;28;20054;-50
2020/12/21 11:26:09;;;;;;;12.95;5.05;;;7.70;91.50;;;;;;4985547;28;20485;-48
2020/12/21 11:28:35;;;;;;;14.88;4.95;;;7.80;91.40;;;;;;4979167;28;20125;-50
2020/12/21 11:31:01;;;;;;;11.65;4.70;;;7.80;91.40;;;;;;4978253;28;20487;-49
2020/12/21 11:33:27;;;;;;;13.57;4.72;;;7.80;91.30;;;;;;4980762;28;20046;-52
2020/12/21 11:35:52;;;;;;;11.48;4.07;;;7.90;91.30;;;;;;4978065;28;20042;-48
2020/12/21 11:38:18;;;;;;;11.45;4.75;;;7.90;91.30;;;;;;4978506;28;20039;-51
2020/12/21 11:40:44;;;;;;;13.88;4.95;;;7.90;91.20;;;;;;4987091;28;20090;-49
2020/12/21 11:43:11;;;;;;;13.13;4.93;;;7.90;91.10;;;;;;4979919;28;20030;-49
2020/12/21 11:45:37;;;;;;;17.60;5.15;;;8.00;91.00;;;;;;4974718;28;20058;-50
2020/12/21 11:48:02;;;;;;;16.23;5.22;;;8.00;91.20;;;;;;4981399;28;20410;-52
2020/12/21 11:50:28;;;;;;;17.45;5.85;;;8.00;91.10;;;;;;4978049;28;20122;-51
2020/12/21 11:52:53;;;;;;;12.85;5.18;;;8.00;91.00;;;;;;4977826;28;20038;-51
2020/12/21 11:55:19;;;;;;;18.67;5.53;;;8.00;91.00;;;;;;4978375;28;20464;-49
2020/12/21 11:57:45;;;;;;;14.38;4.85;;;8.10;91.10;;;;;;4977966;28;20043;-50
2020/12/21 12:00:11;;;;;;;13.85;4.82;;;8.10;91.10;;;;;;4974159;28;20035;-52
2020/12/21 12:02:37;;;;;;;14.82;5.40;;;8.00;91.20;;;;;;4983077;28;20073;-50
2020/12/21 12:05:03;;;;;;;15.23;5.28;;;8.00;91.30;;;;;;4993822;28;20046;-48
2020/12/21 12:07:29;;;;;;;12.85;5.25;;;8.00;91.30;;;;;;4994121;28;20042;-48
2020/12/21 12:09:54;;;;;;;16.45;5.63;;;8.00;91.30;;;;;;4984383;28;20141;-49
2020/12/21 12:12:20;;;;;;;16.65;6.25;;;8.10;91.30;;;;;;4987599;28;20050;-49
2020/12/21 12:14:46;;;;;;;21.48;6.63;;;8.10;91.20;;;;;;4973712;28;20150;-48
2020/12/21 12:17:12;;;;;;;20.05;6.82;;;8.10;91.30;;;;;;4967709;28;20472;-48
2020/12/21 12:19:42;;;;;;;15.02;5.97;;;8.10;91.30;;;;;;4984806;28;20042;-54
2020/12/21 12:22:08;;;;;;;12.27;5.22;;;8.10;91.30;;;;;;4995105;28;20046;-49
2020/12/21 12:24:35;;;;;;;16.10;5.10;;;8.10;91.40;;;;;;4979401;28;20047;-49
2020/12/21 12:27:02;;;;;;;18.50;5.50;;;8.10;91.50;;;;;;4977651;28;20058;-50
2020/12/21 12:29:29;;;;;;;18.95;5.70;;;8.10;91.50;;;;;;4981012;28;20054;-51
2020/12/21 12:31:55;;;;;;;16.92;5.22;;;8.20;91.60;;;;;;4976247;28;20125;-51
2020/12/21 12:34:21;;;;;;;11.48;4.95;;;8.20;91.60;;;;;;4980606;28;20513;-50
2020/12/21 12:36:47;;;;;;;14.35;4.78;;;8.20;91.60;;;;;;4974970;28;20045;-52
2020/12/21 12:39:13;;;;;;;15.18;5.40;;;8.20;91.50;;;;;;4977257;28;20035;-49
2020/12/21 12:41:40;;;;;;;15.52;5.00;;;8.20;91.60;;;;;;4978930;28;20038;-48
2020/12/21 12:44:06;;;;;;;13.18;5.75;;;8.20;91.60;;;;;;4978549;28;20043;-51
2020/12/21 12:46:32;;;;;;;14.75;5.90;;;8.20;91.80;;;;;;4986489;28;20121;-53
2020/12/21 12:48:59;;;;;;;15.88;6.85;;;8.20;91.60;;;;;;4974013;28;20054;-51